sensor_id;sensor_type;location;lat;lon;timestamp;pressure;altitude;pressure_sealevel;temperature;humidity
10988;BME280;5547;42.672;23.230;2022-10-30T00:00:08;94169.38;;;6.10;100.00
10988;BME280;5547;42.672;23.230;2022-10-30T00:02:33;94158.06;;;6.10;100.00
10988;BME280;5547;42.672;23.230;2022-10-30T00:04:59;94165.56;;;6.08;100.00
10988;BME280;5547;42.672;23.230;2022-10-30T00:07:24;94161.56;;;6.18;100.00
10988;BME280;5547;42.672;23.230;2022-10-30T00:09:49;94159.25;;;6.13;100.00
10988;BME280;5547;42.672;23.230;2022-10-30T00:12:14;94158.16;;;6.17;100.00
10988;BME280;5547;42.672;23.230;2022-10-30T00:14:40;94164.16;;;6.14;100.00
10988;BME280;5547;42.672;23.230;2022-10-30T00:17:05;94164.44;;;6.09;100.00
10988;BME280;5547;42.672;23.230;2022-10-30T00:19:30;94160.09;;;6.20;100.00
10988;BME280;5547;42.672;23.230;2022-10-30T00:21:55;94163.72;;;6.12;100.00
10988;BME280;5547;42.672;23.230;2022-10-30T00:24:21;94164.84;;;6.11;100.00
10988;BME280;5547;42.672;23.230;2022-10-30T00:26:47;94166.00;;;6.10;100.00
10988;BME280;5547;42.672;23.230;2022-10-30T00:29:13;94165.44;;;6.24;100.00
10988;BME280;5547;42.672;23.230;2022-10-30T00:31:39;94163.91;;;6.23;100.00
10988;BME280;5547;42.672;23.230;2022-10-30T00:34:04;94159.56;;;6.11;100.00
10988;BME280;5547;42.672;23.230;2022-10-30T00:36:29;94155.94;;;6.19;100.00
10988;BME280;5547;42.672;23.230;2022-10-30T00:38:55;94159.16;;;6.09;100.00
10988;BME280;5547;42.672;23.230;2022-10-30T00:41:21;94161.69;;;6.02;100.00
10988;BME280;5547;42.672;23.230;2022-10-30T00:43:46;94152.28;;;6.01;100.00
10988;BME280;5547;42.672;23.230;2022-10-30T00:46:17;94157.75;;;6.15;100.00
10988;BME280;5547;42.672;23.230;2022-10-30T00:48:47;94154.75;;;6.17;100.00
10988;BME280;5547;42.672;23.230;2022-10-30T00:51:14;94147.84;;;6.08;100.00
10988;BME280;5547;42.672;23.230;2022-10-30T00:53:39;94154.63;;;6.09;100.00
10988;BME280;5547;42.672;23.230;2022-10-30T00:56:06;94152.63;;;6.26;100.00
10988;BME280;5547;42.672;23.230;2022-10-30T00:58:37;94150.03;;;6.29;100.00
10988;BME280;5547;42.672;23.230;2022-10-30T01:01:04;94148.78;;;6.20;100.00
10988;BME280;5547;42.672;23.230;2022-10-30T01:03:31;94135.81;;;6.11;100.00
10988;BME280;5547;42.672;23.230;2022-10-30T01:06:00;94138.38;;;6.07;100.00
10988;BME280;5547;42.672;23.230;2022-10-30T01:08:26;94138.66;;;5.99;100.00
10988;BME280;5547;42.672;23.230;2022-10-30T01:10:52;94137.16;;;5.78;100.00
10988;BME280;5547;42.672;23.230;2022-10-30T01:13:17;94135.88;;;5.68;100.00
10988;BME280;5547;42.672;23.230;2022-10-30T01:15:49;94137.84;;;5.52;100.00
10988;BME280;5547;42.672;23.230;2022-10-30T01:40:58;94113.19;;;5.64;100.00
10988;BME280;5547;42.672;23.230;2022-10-30T01:43:23;94109.75;;;5.63;100.00
10988;BME280;5547;42.672;23.230;2022-10-30T01:48:19;94111.66;;;5.63;100.00
10988;BME280;5547;42.672;23.230;2022-10-30T01:50:54;94107.09;;;5.60;100.00
10988;BME280;5547;42.672;23.230;2022-10-30T01:55:51;94100.22;;;5.55;100.00
10988;BME280;5547;42.672;23.230;2022-10-30T02:00:45;94101.38;;;5.81;100.00
10988;BME280;5547;42.672;23.230;2022-10-30T02:03:12;94099.16;;;5.83;100.00
10988;BME280;5547;42.672;23.230;2022-10-30T02:05:42;94111.13;;;5.77;100.00
10988;BME280;5547;42.672;23.230;2022-10-30T02:08:08;94109.00;;;5.63;100.00
10988;BME280;5547;42.672;23.230;2022-10-30T02:10:36;94099.50;;;5.58;100.00
10988;BME280;5547;42.672;23.230;2022-10-30T02:13:02;94103.69;;;5.59;100.00
10988;BME280;5547;42.672;23.230;2022-10-30T02:15:28;94096.94;;;5.62;100.00
10988;BME280;5547;42.672;23.230;2022-10-30T02:17:54;94100.97;;;5.56;100.00
10988;BME280;5547;42.672;23.230;2022-10-30T02:20:20;94100.16;;;5.52;100.00
10988;BME280;5547;42.672;23.230;2022-10-30T02:22:45;94092.66;;;5.54;100.00
10988;BME280;5547;42.672;23.230;2022-10-30T02:25:11;94094.84;;;5.48;100.00
10988;BME280;5547;42.672;23.230;2022-10-30T02:27:37;94097.09;;;5.50;100.00
10988;BME280;5547;42.672;23.230;2022-10-30T02:30:02;94091.78;;;5.46;100.00
10988;BME280;5547;42.672;23.230;2022-10-30T02:32:27;94090.19;;;5.41;100.00
10988;BME280;5547;42.672;23.230;2022-10-30T02:34:53;94091.72;;;5.42;100.00
10988;BME280;5547;42.672;23.230;2022-10-30T02:37:18;94087.16;;;5.39;100.00
10988;BME280;5547;42.672;23.230;2022-10-30T02:39:43;94093.19;;;5.40;100.00
10988;BME280;5547;42.672;23.230;2022-10-30T02:42:08;94089.06;;;5.42;100.00
10988;BME280;5547;42.672;23.230;2022-10-30T02:44:34;94086.72;;;5.37;100.00
10988;BME280;5547;42.672;23.230;2022-10-30T02:46:59;94089.66;;;5.55;100.00
10988;BME280;5547;42.672;23.230;2022-10-30T02:49:25;94092.00;;;5.60;100.00
10988;BME280;5547;42.672;23.230;2022-10-30T02:51:50;94093.38;;;5.51;100.00
10988;BME280;5547;42.672;23.230;2022-10-30T02:54:15;94095.25;;;5.50;100.00
10988;BME280;5547;42.672;23.230;2022-10-30T02:56:40;94106.19;;;5.52;100.00
10988;BME280;5547;42.672;23.230;2022-10-30T02:59:06;94099.31;;;5.47;100.00
10988;BME280;5547;42.672;23.230;2022-10-30T03:01:31;94104.38;;;5.33;100.00
10988;BME280;5547;42.672;23.230;2022-10-30T03:03:56;94101.72;;;5.33;100.00
10988;BME280;5547;42.672;23.230;2022-10-30T03:06:22;94099.09;;;5.33;100.00
10988;BME280;5547;42.672;23.230;2022-10-30T03:08:47;94108.31;;;5.20;100.00
10988;BME280;5547;42.672;23.230;2022-10-30T03:11:13;94104.13;;;5.19;100.00
10988;BME280;5547;42.672;23.230;2022-10-30T03:13:39;94109.63;;;5.10;100.00
10988;BME280;5547;42.672;23.230;2022-10-30T03:16:09;94108.22;;;5.16;100.00
10988;BME280;5547;42.672;23.230;2022-10-30T03:18:34;94109.81;;;5.21;100.00
10988;BME280;5547;42.672;23.230;2022-10-30T03:21:01;94108.34;;;5.23;100.00
10988;BME280;5547;42.672;23.230;2022-10-30T03:23:27;94115.78;;;5.18;100.00
10988;BME280;5547;42.672;23.230;2022-10-30T03:25:53;94113.56;;;5.20;100.00
10988;BME280;5547;42.672;23.230;2022-10-30T03:28:19;94117.38;;;5.22;100.00
10988;BME280;5547;42.672;23.230;2022-10-30T03:30:45;94117.94;;;5.12;100.00
10988;BME280;5547;42.672;23.230;2022-10-30T03:33:10;94111.19;;;5.15;100.00
10988;BME280;5547;42.672;23.230;2022-10-30T03:35:36;94109.53;;;5.26;100.00
10988;BME280;5547;42.672;23.230;2022-10-30T03:38:01;94112.38;;;5.17;100.00
10988;BME280;5547;42.672;23.230;2022-10-30T03:40:26;94105.41;;;5.29;100.00
10988;BME280;5547;42.672;23.230;2022-10-30T03:42:51;94106.59;;;5.31;100.00
10988;BME280;5547;42.672;23.230;2022-10-30T03:45:17;94111.19;;;5.57;100.00
10988;BME280;5547;42.672;23.230;2022-10-30T03:47:42;94109.59;;;5.53;100.00
10988;BME280;5547;42.672;23.230;2022-10-30T03:50:07;94110.06;;;5.35;100.00
10988;BME280;5547;42.672;23.230;2022-10-30T03:52:33;94109.19;;;5.28;100.00
10988;BME280;5547;42.672;23.230;2022-10-30T03:54:58;94100.84;;;5.25;100.00
10988;BME280;5547;42.672;23.230;2022-10-30T03:57:23;94105.72;;;5.46;100.00
10988;BME280;5547;42.672;23.230;2022-10-30T03:59:48;94104.06;;;5.38;100.00
10988;BME280;5547;42.672;23.230;2022-10-30T04:02:14;94102.56;;;5.37;100.00
10988;BME280;5547;42.672;23.230;2022-10-30T04:04:39;94099.09;;;5.33;100.00
10988;BME280;5547;42.672;23.230;2022-10-30T04:07:04;94097.69;;;5.39;100.00
10988;BME280;5547;42.672;23.230;2022-10-30T04:09:29;94095.47;;;5.41;100.00
10988;BME280;5547;42.672;23.230;2022-10-30T04:11:55;94090.94;;;5.42;100.00
10988;BME280;5547;42.672;23.230;2022-10-30T04:14:20;94095.25;;;5.50;100.00
10988;BME280;5547;42.672;23.230;2022-10-30T04:16:45;94098.56;;;5.47;100.00
10988;BME280;5547;42.672;23.230;2022-10-30T04:19:11;94096.41;;;5.53;100.00
10988;BME280;5547;42.672;23.230;2022-10-30T04:21:36;94090.50;;;5.36;100.00
10988;BME280;5547;42.672;23.230;2022-10-30T04:24:02;94083.84;;;5.23;100.00
10988;BME280;5547;42.672;23.230;2022-10-30T04:26:27;94084.72;;;5.54;100.00
10988;BME280;5547;42.672;23.230;2022-10-30T04:28:52;94085.66;;;5.88;100.00
10988;BME280;5547;42.672;23.230;2022-10-30T04:31:18;94087.94;;;5.89;100.00
10988;BME280;5547;42.672;23.230;2022-10-30T04:33:43;94086.88;;;6.21;100.00
10988;BME280;5547;42.672;23.230;2022-10-30T04:36:08;94092.81;;;6.14;100.00
10988;BME280;5547;42.672;23.230;2022-10-30T04:38:34;94090.56;;;6.13;100.00
10988;BME280;5547;42.672;23.230;2022-10-30T04:40:59;94096.50;;;6.06;100.00
10988;BME280;5547;42.672;23.230;2022-10-30T04:43:24;94095.09;;;6.42;100.00
10988;BME280;5547;42.672;23.230;2022-10-30T04:45:49;94095.88;;;6.16;100.00
10988;BME280;5547;42.672;23.230;2022-10-30T04:48:16;94089.09;;;5.92;100.00
10988;BME280;5547;42.672;23.230;2022-10-30T04:50:42;94088.94;;;5.81;100.00
10988;BME280;5547;42.672;23.230;2022-10-30T04:53:11;94101.41;;;5.84;100.00
10988;BME280;5547;42.672;23.230;2022-10-30T04:55:37;94098.22;;;5.72;100.00
10988;BME280;5547;42.672;23.230;2022-10-30T04:58:02;94104.47;;;5.86;100.00
10988;BME280;5547;42.672;23.230;2022-10-30T05:00:28;94100.91;;;5.75;100.00
10988;BME280;5547;42.672;23.230;2022-10-30T05:02:54;94105.13;;;5.57;100.00
10988;BME280;5547;42.672;23.230;2022-10-30T05:05:19;94104.34;;;5.53;100.00
10988;BME280;5547;42.672;23.230;2022-10-30T05:07:44;94106.06;;;5.45;100.00
10988;BME280;5547;42.672;23.230;2022-10-30T05:10:11;94109.19;;;5.51;100.00
10988;BME280;5547;42.672;23.230;2022-10-30T05:12:38;94112.38;;;5.60;100.00
10988;BME280;5547;42.672;23.230;2022-10-30T05:15:04;94111.00;;;5.46;100.00
10988;BME280;5547;42.672;23.230;2022-10-30T05:17:29;94111.72;;;5.43;100.00
10988;BME280;5547;42.672;23.230;2022-10-30T05:19:54;94103.44;;;5.45;100.00
10988;BME280;5547;42.672;23.230;2022-10-30T05:22:20;94118.16;;;5.46;100.00
10988;BME280;5547;42.672;23.230;2022-10-30T05:24:46;94109.34;;;5.38;100.00
10988;BME280;5547;42.672;23.230;2022-10-30T05:27:11;94103.81;;;5.43;100.00
10988;BME280;5547;42.672;23.230;2022-10-30T05:29:36;94116.94;;;5.63;100.00
10988;BME280;5547;42.672;23.230;2022-10-30T05:32:01;94112.28;;;5.79;100.00
10988;BME280;5547;42.672;23.230;2022-10-30T05:34:27;94113.88;;;5.84;100.00
10988;BME280;5547;42.672;23.230;2022-10-30T05:36:52;94120.09;;;5.95;100.00
10988;BME280;5547;42.672;23.230;2022-10-30T05:39:17;94117.97;;;6.04;100.00
10988;BME280;5547;42.672;23.230;2022-10-30T05:41:43;94111.94;;;6.04;100.00
10988;BME280;5547;42.672;23.230;2022-10-30T05:44:08;94121.22;;;6.21;100.00
10988;BME280;5547;42.672;23.230;2022-10-30T05:46:33;94120.63;;;6.31;100.00
10988;BME280;5547;42.672;23.230;2022-10-30T05:48:58;94121.25;;;6.51;100.00
10988;BME280;5547;42.672;23.230;2022-10-30T05:51:24;94115.38;;;6.65;100.00
10988;BME280;5547;42.672;23.230;2022-10-30T05:53:49;94107.75;;;6.90;100.00
10988;BME280;5547;42.672;23.230;2022-10-30T05:56:15;94107.63;;;7.09;100.00
10988;BME280;5547;42.672;23.230;2022-10-30T05:58:40;94112.19;;;7.16;100.00
10988;BME280;5547;42.672;23.230;2022-10-30T06:01:06;94111.13;;;7.62;100.00
10988;BME280;5547;42.672;23.230;2022-10-30T06:03:31;94116.22;;;7.81;100.00
10988;BME280;5547;42.672;23.230;2022-10-30T06:05:56;94111.03;;;7.99;100.00
10988;BME280;5547;42.672;23.230;2022-10-30T06:08:22;94113.81;;;8.17;100.00
10988;BME280;5547;42.672;23.230;2022-10-30T06:10:47;94115.09;;;8.37;100.00
10988;BME280;5547;42.672;23.230;2022-10-30T06:13:12;94114.13;;;8.60;100.00
10988;BME280;5547;42.672;23.230;2022-10-30T06:15:37;94113.41;;;8.74;100.00
10988;BME280;5547;42.672;23.230;2022-10-30T06:18:03;94104.38;;;8.86;100.00
10988;BME280;5547;42.672;23.230;2022-10-30T06:20:28;94104.00;;;8.91;100.00
10988;BME280;5547;42.672;23.230;2022-10-30T06:22:54;94110.41;;;8.82;98.85
10988;BME280;5547;42.672;23.230;2022-10-30T06:25:20;94112.63;;;8.73;96.52
10988;BME280;5547;42.672;23.230;2022-10-30T06:27:45;94114.16;;;8.67;95.33
10988;BME280;5547;42.672;23.230;2022-10-30T06:30:11;94115.97;;;8.59;95.02
10988;BME280;5547;42.672;23.230;2022-10-30T06:32:36;94112.50;;;8.45;93.95
10988;BME280;5547;42.672;23.230;2022-10-30T06:35:01;94116.31;;;8.47;93.45
10988;BME280;5547;42.672;23.230;2022-10-30T06:37:27;94119.66;;;8.40;92.71
10988;BME280;5547;42.672;23.230;2022-10-30T06:39:53;94122.25;;;8.30;92.47
10988;BME280;5547;42.672;23.230;2022-10-30T06:42:18;94126.00;;;8.29;90.78
10988;BME280;5547;42.672;23.230;2022-10-30T06:44:43;94123.91;;;8.49;92.35
10988;BME280;5547;42.672;23.230;2022-10-30T06:47:08;94126.97;;;8.58;90.10
10988;BME280;5547;42.672;23.230;2022-10-30T06:49:34;94120.22;;;8.71;91.98
10988;BME280;5547;42.672;23.230;2022-10-30T06:51:59;94129.75;;;8.87;90.65
10988;BME280;5547;42.672;23.230;2022-10-30T06:54:24;94133.28;;;9.09;88.86
10988;BME280;5547;42.672;23.230;2022-10-30T06:56:49;94139.00;;;9.25;87.97
10988;BME280;5547;42.672;23.230;2022-10-30T06:59:15;94133.69;;;9.25;86.46
10988;BME280;5547;42.672;23.230;2022-10-30T07:01:40;94135.59;;;9.28;86.82
10988;BME280;5547;42.672;23.230;2022-10-30T07:04:06;94129.53;;;9.35;87.42
10988;BME280;5547;42.672;23.230;2022-10-30T07:06:31;94127.31;;;9.48;86.34
10988;BME280;5547;42.672;23.230;2022-10-30T07:08:56;94134.91;;;9.53;85.04
10988;BME280;5547;42.672;23.230;2022-10-30T07:11:22;94133.38;;;9.55;84.49
10988;BME280;5547;42.672;23.230;2022-10-30T07:13:47;94128.09;;;9.62;83.86
10988;BME280;5547;42.672;23.230;2022-10-30T07:16:13;94123.91;;;9.58;82.46
10988;BME280;5547;42.672;23.230;2022-10-30T07:18:38;94117.09;;;9.57;84.07
10988;BME280;5547;42.672;23.230;2022-10-30T07:21:03;94119.34;;;9.73;83.80
10988;BME280;5547;42.672;23.230;2022-10-30T07:23:28;94109.13;;;9.93;83.21
10988;BME280;5547;42.672;23.230;2022-10-30T07:25:54;94121.25;;;10.04;82.70
10988;BME280;5547;42.672;23.230;2022-10-30T07:28:19;94113.69;;;10.17;82.26
10988;BME280;5547;42.672;23.230;2022-10-30T07:30:44;94109.84;;;10.25;82.01
10988;BME280;5547;42.672;23.230;2022-10-30T07:33:10;94110.97;;;10.53;79.44
10988;BME280;5547;42.672;23.230;2022-10-30T07:35:35;94109.81;;;10.61;79.62
10988;BME280;5547;42.672;23.230;2022-10-30T07:38:01;94107.88;;;10.76;79.39
10988;BME280;5547;42.672;23.230;2022-10-30T07:40:28;94110.13;;;10.88;77.82
10988;BME280;5547;42.672;23.230;2022-10-30T07:42:57;94109.75;;;10.86;79.14
10988;BME280;5547;42.672;23.230;2022-10-30T07:45:22;94115.78;;;10.98;78.32
10988;BME280;5547;42.672;23.230;2022-10-30T07:47:48;94110.44;;;11.05;77.54
10988;BME280;5547;42.672;23.230;2022-10-30T07:50:13;94108.91;;;11.07;77.63
10988;BME280;5547;42.672;23.230;2022-10-30T07:52:38;94112.66;;;11.13;76.85
10988;BME280;5547;42.672;23.230;2022-10-30T07:55:04;94102.72;;;11.28;76.52
10988;BME280;5547;42.672;23.230;2022-10-30T07:57:40;94105.75;;;11.27;76.12
10988;BME280;5547;42.672;23.230;2022-10-30T08:00:06;94099.19;;;11.46;77.09
10988;BME280;5547;42.672;23.230;2022-10-30T08:02:32;94092.66;;;11.54;76.93
10988;BME280;5547;42.672;23.230;2022-10-30T08:04:57;94090.22;;;11.77;75.32
10988;BME280;5547;42.672;23.230;2022-10-30T08:07:23;94087.09;;;11.90;74.56
10988;BME280;5547;42.672;23.230;2022-10-30T08:09:48;94086.19;;;12.11;73.68
10988;BME280;5547;42.672;23.230;2022-10-30T08:12:14;94083.84;;;12.16;72.61
10988;BME280;5547;42.672;23.230;2022-10-30T08:14:39;94085.41;;;12.10;72.82
10988;BME280;5547;42.672;23.230;2022-10-30T08:17:04;94080.81;;;12.14;72.54
10988;BME280;5547;42.672;23.230;2022-10-30T08:19:31;94082.28;;;12.23;72.98
10988;BME280;5547;42.672;23.230;2022-10-30T08:21:56;94079.75;;;12.46;71.37
10988;BME280;5547;42.672;23.230;2022-10-30T08:24:22;94078.56;;;12.51;72.98
10988;BME280;5547;42.672;23.230;2022-10-30T08:26:49;94082.31;;;12.57;72.02
10988;BME280;5547;42.672;23.230;2022-10-30T08:29:15;94085.25;;;12.66;70.78
10988;BME280;5547;42.672;23.230;2022-10-30T08:31:40;94079.03;;;12.76;70.56
10988;BME280;5547;42.672;23.230;2022-10-30T08:34:05;94082.34;;;12.88;68.61
10988;BME280;5547;42.672;23.230;2022-10-30T08:36:31;94078.38;;;12.69;69.19
10988;BME280;5547;42.672;23.230;2022-10-30T08:38:56;94078.94;;;12.87;69.55
10988;BME280;5547;42.672;23.230;2022-10-30T08:41:22;94088.97;;;13.10;68.56
10988;BME280;5547;42.672;23.230;2022-10-30T08:43:47;94084.81;;;13.06;69.40
10988;BME280;5547;42.672;23.230;2022-10-30T08:46:13;94079.06;;;13.07;70.07
10988;BME280;5547;42.672;23.230;2022-10-30T08:48:38;94084.22;;;13.21;68.34
10988;BME280;5547;42.672;23.230;2022-10-30T08:51:03;94068.00;;;13.05;68.00
10988;BME280;5547;42.672;23.230;2022-10-30T08:53:30;94087.81;;;13.08;68.32
10988;BME280;5547;42.672;23.230;2022-10-30T08:55:56;94083.09;;;13.19;69.63
10988;BME280;5547;42.672;23.230;2022-10-30T08:58:21;94073.47;;;13.29;68.51
10988;BME280;5547;42.672;23.230;2022-10-30T09:00:46;94070.38;;;13.30;68.55
10988;BME280;5547;42.672;23.230;2022-10-30T09:03:11;94072.53;;;13.42;67.05
10988;BME280;5547;42.672;23.230;2022-10-30T09:05:37;94076.06;;;13.36;68.31
10988;BME280;5547;42.672;23.230;2022-10-30T09:08:02;94070.84;;;13.52;67.36
10988;BME280;5547;42.672;23.230;2022-10-30T09:10:28;94065.56;;;13.49;68.41
10988;BME280;5547;42.672;23.230;2022-10-30T09:12:54;94064.69;;;13.55;67.32
10988;BME280;5547;42.672;23.230;2022-10-30T09:15:20;94062.50;;;13.74;66.56
10988;BME280;5547;42.672;23.230;2022-10-30T09:17:45;94062.13;;;13.75;66.44
10988;BME280;5547;42.672;23.230;2022-10-30T09:20:10;94057.13;;;13.77;66.76
10988;BME280;5547;42.672;23.230;2022-10-30T09:22:39;94060.28;;;13.96;66.14
10988;BME280;5547;42.672;23.230;2022-10-30T09:25:04;94059.31;;;14.06;65.35
10988;BME280;5547;42.672;23.230;2022-10-30T09:27:29;94066.28;;;14.47;63.99
10988;BME280;5547;42.672;23.230;2022-10-30T09:29:55;94062.91;;;14.43;64.77
10988;BME280;5547;42.672;23.230;2022-10-30T09:32:20;94068.75;;;14.58;64.47
10988;BME280;5547;42.672;23.230;2022-10-30T09:34:45;94066.84;;;14.78;63.14
10988;BME280;5547;42.672;23.230;2022-10-30T09:37:10;94059.09;;;14.64;63.30
10988;BME280;5547;42.672;23.230;2022-10-30T09:39:36;94056.56;;;14.77;63.07
10988;BME280;5547;42.672;23.230;2022-10-30T09:44:49;94046.72;;;14.90;62.29
10988;BME280;5547;42.672;23.230;2022-10-30T09:54:49;94033.13;;;15.37;60.75
10988;BME280;5547;42.672;23.230;2022-10-30T10:00:09;94021.31;;;15.51;59.96
10988;BME280;5547;42.672;23.230;2022-10-30T10:02:36;94018.97;;;15.69;59.86
10988;BME280;5547;42.672;23.230;2022-10-30T10:07:29;94015.41;;;16.22;57.36
10988;BME280;5547;42.672;23.230;2022-10-30T10:09:58;94010.81;;;16.22;57.17
10988;BME280;5547;42.672;23.230;2022-10-30T10:14:49;94010.53;;;16.33;56.14
10988;BME280;5547;42.672;23.230;2022-10-30T10:17:26;94000.66;;;16.43;54.09
10988;BME280;5547;42.672;23.230;2022-10-30T10:19:58;93997.19;;;16.58;54.43
10988;BME280;5547;42.672;23.230;2022-10-30T10:22:25;93993.41;;;16.56;53.47
10988;BME280;5547;42.672;23.230;2022-10-30T10:24:51;93987.97;;;16.59;53.57
10988;BME280;5547;42.672;23.230;2022-10-30T10:27:21;93982.47;;;16.63;52.58
10988;BME280;5547;42.672;23.230;2022-10-30T10:29:52;93985.16;;;16.92;51.95
10988;BME280;5547;42.672;23.230;2022-10-30T10:37:46;93970.09;;;17.46;49.76
10988;BME280;5547;42.672;23.230;2022-10-30T10:45:32;93959.34;;;17.46;48.50
10988;BME280;5547;42.672;23.230;2022-10-30T10:50:48;93962.44;;;17.57;47.31
10988;BME280;5547;42.672;23.230;2022-10-30T10:56:13;93950.25;;;17.91;45.99
10988;BME280;5547;42.672;23.230;2022-10-30T11:01:03;93946.56;;;17.98;46.44
10988;BME280;5547;42.672;23.230;2022-10-30T11:06:16;93940.63;;;18.03;46.13
10988;BME280;5547;42.672;23.230;2022-10-30T11:08:44;93937.75;;;18.19;45.78
10988;BME280;5547;42.672;23.230;2022-10-30T11:11:09;93931.63;;;18.19;45.84
10988;BME280;5547;42.672;23.230;2022-10-30T11:18:45;93918.81;;;18.32;42.10
10988;BME280;5547;42.672;23.230;2022-10-30T11:21:14;93914.16;;;18.23;45.12
10988;BME280;5547;42.672;23.230;2022-10-30T11:23:43;93918.59;;;18.39;43.41
10988;BME280;5547;42.672;23.230;2022-10-30T11:29:00;93907.47;;;18.59;43.09
10988;BME280;5547;42.672;23.230;2022-10-30T11:31:28;93908.72;;;18.67;42.53
10988;BME280;5547;42.672;23.230;2022-10-30T11:34:23;93902.00;;;18.72;42.84
10988;BME280;5547;42.672;23.230;2022-10-30T11:36:51;93900.63;;;18.67;41.96
10988;BME280;5547;42.672;23.230;2022-10-30T11:39:18;93894.78;;;18.69;42.88
10988;BME280;5547;42.672;23.230;2022-10-30T11:41:45;93894.00;;;18.81;42.24
10988;BME280;5547;42.672;23.230;2022-10-30T11:44:12;93895.88;;;18.72;40.90
10988;BME280;5547;42.672;23.230;2022-10-30T11:46:38;93897.00;;;18.83;42.30
10988;BME280;5547;42.672;23.230;2022-10-30T11:49:03;93895.22;;;18.89;44.01
10988;BME280;5547;42.672;23.230;2022-10-30T11:51:36;93896.38;;;18.79;43.69
10988;BME280;5547;42.672;23.230;2022-10-30T11:54:03;93889.81;;;18.89;43.55
10988;BME280;5547;42.672;23.230;2022-10-30T11:56:29;93886.03;;;19.18;43.17
10988;BME280;5547;42.672;23.230;2022-10-30T11:58:56;93894.06;;;19.00;44.08
10988;BME280;5547;42.672;23.230;2022-10-30T12:01:29;93893.78;;;19.07;43.48
10988;BME280;5547;42.672;23.230;2022-10-30T12:03:55;93887.22;;;19.17;42.43
10988;BME280;5547;42.672;23.230;2022-10-30T12:11:30;93880.06;;;19.33;43.77
10988;BME280;5547;42.672;23.230;2022-10-30T12:13:56;93876.13;;;19.15;43.76
10988;BME280;5547;42.672;23.230;2022-10-30T12:16:22;93879.41;;;19.10;43.79
10988;BME280;5547;42.672;23.230;2022-10-30T12:18:54;93880.38;;;19.35;43.11
10988;BME280;5547;42.672;23.230;2022-10-30T12:21:22;93877.91;;;19.09;43.66
10988;BME280;5547;42.672;23.230;2022-10-30T12:23:55;93872.66;;;19.05;43.79
10988;BME280;5547;42.672;23.230;2022-10-30T12:26:21;93870.69;;;19.06;43.68
10988;BME280;5547;42.672;23.230;2022-10-30T12:28:51;93864.44;;;19.09;41.96
10988;BME280;5547;42.672;23.230;2022-10-30T12:31:27;93866.53;;;19.05;42.79
10988;BME280;5547;42.672;23.230;2022-10-30T12:34:08;93863.16;;;18.82;43.42
10988;BME280;5547;42.672;23.230;2022-10-30T12:36:41;93857.81;;;19.01;41.33
10988;BME280;5547;42.672;23.230;2022-10-30T12:41:42;93854.53;;;19.06;41.09
10988;BME280;5547;42.672;23.230;2022-10-30T12:44:15;93856.16;;;19.03;40.83
10988;BME280;5547;42.672;23.230;2022-10-30T12:46:47;93854.72;;;19.12;40.58
10988;BME280;5547;42.672;23.230;2022-10-30T12:49:24;93852.19;;;19.36;40.10
10988;BME280;5547;42.672;23.230;2022-10-30T12:54:24;93845.38;;;19.90;39.90
10988;BME280;5547;42.672;23.230;2022-10-30T12:57:17;93853.59;;;19.96;39.61
10988;BME280;5547;42.672;23.230;2022-10-30T12:59:50;93852.25;;;19.91;40.07
10988;BME280;5547;42.672;23.230;2022-10-30T13:04:51;93840.16;;;20.47;38.35
10988;BME280;5547;42.672;23.230;2022-10-30T13:07:28;93835.66;;;20.44;39.14
10988;BME280;5547;42.672;23.230;2022-10-30T13:12:27;93837.63;;;20.86;37.78
10988;BME280;5547;42.672;23.230;2022-10-30T13:14:58;93828.22;;;21.06;36.75
10988;BME280;5547;42.672;23.230;2022-10-30T13:17:25;93827.97;;;20.94;37.38
10988;BME280;5547;42.672;23.230;2022-10-30T13:19:52;93823.22;;;20.89;38.08
10988;BME280;5547;42.672;23.230;2022-10-30T13:27:40;93821.25;;;20.90;36.63
10988;BME280;5547;42.672;23.230;2022-10-30T13:30:19;93820.84;;;20.82;36.00
10988;BME280;5547;42.672;23.230;2022-10-30T13:33:04;93816.19;;;20.83;36.70
10988;BME280;5547;42.672;23.230;2022-10-30T13:43:00;93815.59;;;21.03;37.42
10988;BME280;5547;42.672;23.230;2022-10-30T13:53:09;93826.97;;;20.31;39.90
10988;BME280;5547;42.672;23.230;2022-10-30T13:55:38;93840.22;;;20.29;39.46
10988;BME280;5547;42.672;23.230;2022-10-30T14:11:26;93836.16;;;19.23;42.40
10988;BME280;5547;42.672;23.230;2022-10-30T14:13:57;93832.53;;;19.17;42.57
10988;BME280;5547;42.672;23.230;2022-10-30T14:16:40;93835.81;;;19.02;42.61
10988;BME280;5547;42.672;23.230;2022-10-30T14:19:10;93836.88;;;19.05;43.05
10988;BME280;5547;42.672;23.230;2022-10-30T14:21:54;93832.63;;;18.95;42.43
10988;BME280;5547;42.672;23.230;2022-10-30T14:24:26;93832.88;;;18.78;43.08
10988;BME280;5547;42.672;23.230;2022-10-30T14:29:36;93840.69;;;18.54;43.84
10988;BME280;5547;42.672;23.230;2022-10-30T14:32:29;93834.47;;;18.35;44.18
10988;BME280;5547;42.672;23.230;2022-10-30T14:40:29;93832.97;;;18.03;45.25
10988;BME280;5547;42.672;23.230;2022-10-30T14:42:50;93832.69;;;17.88;45.57
10988;BME280;5547;42.672;23.230;2022-10-30T14:45:21;93842.19;;;17.80;45.69
10988;BME280;5547;42.672;23.230;2022-10-30T14:58:18;93844.41;;;17.25;48.41
10988;BME280;5547;42.672;23.230;2022-10-30T15:00:45;93838.94;;;17.15;48.19
10988;BME280;5547;42.672;23.230;2022-10-30T15:05:43;93843.50;;;17.06;48.42
10988;BME280;5547;42.672;23.230;2022-10-30T15:08:25;93834.78;;;16.89;49.31
10988;BME280;5547;42.672;23.230;2022-10-30T15:13:26;93837.69;;;16.69;50.18
10988;BME280;5547;42.672;23.230;2022-10-30T15:15:58;93838.09;;;16.67;50.22
10988;BME280;5547;42.672;23.230;2022-10-30T15:18:24;93837.56;;;16.59;50.53
10988;BME280;5547;42.672;23.230;2022-10-30T15:20:51;93831.88;;;16.45;51.13
10988;BME280;5547;42.672;23.230;2022-10-30T15:23:24;93834.22;;;16.43;51.18
10988;BME280;5547;42.672;23.230;2022-10-30T15:25:54;93836.38;;;16.22;52.77
10988;BME280;5547;42.672;23.230;2022-10-30T15:28:21;93835.72;;;16.31;51.37